sensor_id;sensor_type;location;lat;lon;timestamp;P1;durP1;ratioP1;P2;durP2;ratioP2
50555;SDS011;36508;52.512;13.450;2023-02-15T00:01:46;32.33;;;26.40;;
50555;SDS011;36508;52.512;13.450;2023-02-15T00:04:13;40.17;;;29.07;;
50555;SDS011;36508;52.512;13.450;2023-02-15T00:06:40;34.40;;;28.63;;
50555;SDS011;36508;52.512;13.450;2023-02-15T00:09:05;42.50;;;30.47;;
50555;SDS011;36508;52.512;13.450;2023-02-15T00:11:31;36.27;;;26.30;;
50555;SDS011;36508;52.512;13.450;2023-02-15T00:14:30;33.10;;;25.17;;
50555;SDS011;36508;52.512;13.450;2023-02-15T00:16:55;31.17;;;25.77;;
50555;SDS011;36508;52.512;13.450;2023-02-15T00:19:24;34.60;;;26.07;;
50555;SDS011;36508;52.512;13.450;2023-02-15T00:21:50;31.10;;;23.57;;
50555;SDS011;36508;52.512;13.450;2023-02-15T00:24:17;30.43;;;24.57;;
50555;SDS011;36508;52.512;13.450;2023-02-15T00:26:44;38.70;;;29.60;;
50555;SDS011;36508;52.512;13.450;2023-02-15T00:29:12;39.27;;;27.23;;
50555;SDS011;36508;52.512;13.450;2023-02-15T00:31:39;35.63;;;27.10;;
50555;SDS011;36508;52.512;13.450;2023-02-15T00:34:06;34.50;;;27.20;;
50555;SDS011;36508;52.512;13.450;2023-02-15T00:36:55;33.87;;;28.23;;
50555;SDS011;36508;52.512;13.450;2023-02-15T00:39:21;29.63;;;24.73;;
50555;SDS011;36508;52.512;13.450;2023-02-15T00:41:48;36.20;;;27.80;;
50555;SDS011;36508;52.512;13.450;2023-02-15T00:44:14;39.40;;;28.23;;
50555;SDS011;36508;52.512;13.450;2023-02-15T00:46:40;34.73;;;30.53;;
50555;SDS011;36508;52.512;13.450;2023-02-15T00:49:06;36.57;;;27.47;;
50555;SDS011;36508;52.512;13.450;2023-02-15T00:51:32;34.07;;;25.67;;
50555;SDS011;36508;52.512;13.450;2023-02-15T00:53:57;36.07;;;29.60;;
50555;SDS011;36508;52.512;13.450;2023-02-15T00:56:23;36.90;;;29.20;;
50555;SDS011;36508;52.512;13.450;2023-02-15T00:58:53;44.63;;;28.57;;
50555;SDS011;36508;52.512;13.450;2023-02-15T01:01:20;34.00;;;25.33;;
50555;SDS011;36508;52.512;13.450;2023-02-15T01:03:46;39.70;;;31.30;;
50555;SDS011;36508;52.512;13.450;2023-02-15T01:06:12;33.23;;;26.37;;
50555;SDS011;36508;52.512;13.450;2023-02-15T01:08:39;38.40;;;26.47;;
50555;SDS011;36508;52.512;13.450;2023-02-15T01:11:12;34.37;;;27.20;;
50555;SDS011;36508;52.512;13.450;2023-02-15T01:13:40;34.90;;;27.10;;
50555;SDS011;36508;52.512;13.450;2023-02-15T01:16:06;38.60;;;28.20;;
50555;SDS011;36508;52.512;13.450;2023-02-15T01:18:34;33.03;;;26.47;;
50555;SDS011;36508;52.512;13.450;2023-02-15T01:21:08;36.30;;;28.57;;
50555;SDS011;36508;52.512;13.450;2023-02-15T01:23:40;32.77;;;26.83;;
50555;SDS011;36508;52.512;13.450;2023-02-15T01:26:07;36.10;;;27.60;;
50555;SDS011;36508;52.512;13.450;2023-02-15T01:28:36;33.80;;;26.93;;
50555;SDS011;36508;52.512;13.450;2023-02-15T01:31:09;36.13;;;26.93;;
50555;SDS011;36508;52.512;13.450;2023-02-15T01:33:39;33.53;;;27.40;;
50555;SDS011;36508;52.512;13.450;2023-02-15T01:36:05;46.03;;;28.77;;
50555;SDS011;36508;52.512;13.450;2023-02-15T01:38:32;34.20;;;27.70;;
50555;SDS011;36508;52.512;13.450;2023-02-15T01:40:59;37.00;;;26.60;;
50555;SDS011;36508;52.512;13.450;2023-02-15T01:43:48;39.60;;;29.27;;
50555;SDS011;36508;52.512;13.450;2023-02-15T01:46:30;36.23;;;28.07;;
50555;SDS011;36508;52.512;13.450;2023-02-15T01:49:19;38.73;;;28.93;;
50555;SDS011;36508;52.512;13.450;2023-02-15T01:51:51;42.80;;;29.70;;
50555;SDS011;36508;52.512;13.450;2023-02-15T01:54:23;40.07;;;30.20;;
50555;SDS011;36508;52.512;13.450;2023-02-15T01:56:54;43.50;;;28.30;;
50555;SDS011;36508;52.512;13.450;2023-02-15T01:59:23;34.40;;;27.30;;
50555;SDS011;36508;52.512;13.450;2023-02-15T02:01:51;41.67;;;33.13;;
50555;SDS011;36508;52.512;13.450;2023-02-15T02:04:23;37.57;;;28.20;;
50555;SDS011;36508;52.512;13.450;2023-02-15T02:07:03;37.53;;;31.80;;
50555;SDS011;36508;52.512;13.450;2023-02-15T02:09:30;37.70;;;27.87;;
50555;SDS011;36508;52.512;13.450;2023-02-15T02:11:56;40.67;;;30.93;;
50555;SDS011;36508;52.512;13.450;2023-02-15T02:14:22;40.37;;;30.00;;
50555;SDS011;36508;52.512;13.450;2023-02-15T02:16:55;43.13;;;32.60;;
50555;SDS011;36508;52.512;13.450;2023-02-15T02:19:45;44.30;;;32.70;;
50555;SDS011;36508;52.512;13.450;2023-02-15T02:25:33;55.67;;;35.73;;
50555;SDS011;36508;52.512;13.450;2023-02-15T02:33:39;44.77;;;35.10;;
50555;SDS011;36508;52.512;13.450;2023-02-15T02:36:52;48.30;;;35.90;;
50555;SDS011;36508;52.512;13.450;2023-02-15T02:39:30;45.50;;;33.77;;
50555;SDS011;36508;52.512;13.450;2023-02-15T02:42:17;47.70;;;33.67;;
50555;SDS011;36508;52.512;13.450;2023-02-15T02:45:08;51.30;;;36.70;;
50555;SDS011;36508;52.512;13.450;2023-02-15T02:50:13;60.67;;;40.23;;
50555;SDS011;36508;52.512;13.450;2023-02-15T02:52:43;58.57;;;40.37;;
50555;SDS011;36508;52.512;13.450;2023-02-15T02:55:16;63.27;;;44.70;;
50555;SDS011;36508;52.512;13.450;2023-02-15T02:58:06;56.47;;;35.57;;
50555;SDS011;36508;52.512;13.450;2023-02-15T03:00:37;62.80;;;42.10;;
50555;SDS011;36508;52.512;13.450;2023-02-15T03:03:30;60.93;;;42.50;;
50555;SDS011;36508;52.512;13.450;2023-02-15T03:06:18;54.30;;;41.27;;
50555;SDS011;36508;52.512;13.450;2023-02-15T03:08:50;57.07;;;39.00;;
50555;SDS011;36508;52.512;13.450;2023-02-15T03:11:26;53.93;;;35.93;;
50555;SDS011;36508;52.512;13.450;2023-02-15T03:13:51;62.17;;;41.47;;
50555;SDS011;36508;52.512;13.450;2023-02-15T03:16:17;56.17;;;38.40;;
50555;SDS011;36508;52.512;13.450;2023-02-15T03:19:13;65.27;;;41.77;;
50555;SDS011;36508;52.512;13.450;2023-02-15T03:21:50;58.00;;;39.47;;
50555;SDS011;36508;52.512;13.450;2023-02-15T03:24:24;60.37;;;39.20;;
50555;SDS011;36508;52.512;13.450;2023-02-15T03:26:54;62.77;;;38.57;;
50555;SDS011;36508;52.512;13.450;2023-02-15T03:29:22;49.27;;;33.47;;
50555;SDS011;36508;52.512;13.450;2023-02-15T03:31:53;56.53;;;37.00;;
50555;SDS011;36508;52.512;13.450;2023-02-15T03:34:24;56.33;;;36.60;;
50555;SDS011;36508;52.512;13.450;2023-02-15T03:41:50;55.10;;;34.87;;
50555;SDS011;36508;52.512;13.450;2023-02-15T03:52:29;62.17;;;39.97;;
50555;SDS011;36508;52.512;13.450;2023-02-15T03:54:59;58.37;;;36.33;;
50555;SDS011;36508;52.512;13.450;2023-02-15T03:57:26;51.50;;;32.57;;
50555;SDS011;36508;52.512;13.450;2023-02-15T04:03:09;65.20;;;41.90;;
50555;SDS011;36508;52.512;13.450;2023-02-15T04:05:42;57.20;;;35.57;;
50555;SDS011;36508;52.512;13.450;2023-02-15T04:08:09;53.23;;;38.47;;
50555;SDS011;36508;52.512;13.450;2023-02-15T04:10:35;65.93;;;41.13;;
50555;SDS011;36508;52.512;13.450;2023-02-15T04:13:23;60.67;;;39.33;;
50555;SDS011;36508;52.512;13.450;2023-02-15T04:15:54;59.37;;;39.70;;
50555;SDS011;36508;52.512;13.450;2023-02-15T04:18:29;60.70;;;42.13;;
50555;SDS011;36508;52.512;13.450;2023-02-15T04:21:22;57.07;;;33.53;;
50555;SDS011;36508;52.512;13.450;2023-02-15T04:24:08;56.80;;;35.40;;
50555;SDS011;36508;52.512;13.450;2023-02-15T04:26:53;56.77;;;37.50;;
50555;SDS011;36508;52.512;13.450;2023-02-15T04:29:22;56.20;;;37.00;;
50555;SDS011;36508;52.512;13.450;2023-02-15T04:31:49;49.03;;;32.67;;
50555;SDS011;36508;52.512;13.450;2023-02-15T04:34:16;68.03;;;39.70;;
50555;SDS011;36508;52.512;13.450;2023-02-15T04:36:42;51.10;;;32.83;;
50555;SDS011;36508;52.512;13.450;2023-02-15T04:39:08;53.37;;;35.37;;
50555;SDS011;36508;52.512;13.450;2023-02-15T04:41:37;59.13;;;37.13;;
50555;SDS011;36508;52.512;13.450;2023-02-15T04:44:03;59.03;;;36.67;;
50555;SDS011;36508;52.512;13.450;2023-02-15T04:46:28;55.97;;;35.13;;
50555;SDS011;36508;52.512;13.450;2023-02-15T04:48:54;53.43;;;35.07;;
50555;SDS011;36508;52.512;13.450;2023-02-15T04:51:21;48.87;;;33.70;;
50555;SDS011;36508;52.512;13.450;2023-02-15T04:53:47;58.80;;;37.60;;
50555;SDS011;36508;52.512;13.450;2023-02-15T04:56:13;49.53;;;35.03;;
50555;SDS011;36508;52.512;13.450;2023-02-15T04:58:39;44.00;;;32.37;;
50555;SDS011;36508;52.512;13.450;2023-02-15T05:01:07;58.03;;;35.30;;
50555;SDS011;36508;52.512;13.450;2023-02-15T05:03:33;53.27;;;33.73;;
50555;SDS011;36508;52.512;13.450;2023-02-15T05:05:59;54.00;;;33.30;;
50555;SDS011;36508;52.512;13.450;2023-02-15T05:08:25;48.63;;;33.20;;
50555;SDS011;36508;52.512;13.450;2023-02-15T05:10:51;52.53;;;35.43;;
50555;SDS011;36508;52.512;13.450;2023-02-15T05:13:17;56.27;;;36.33;;
50555;SDS011;36508;52.512;13.450;2023-02-15T05:15:47;55.87;;;34.70;;
50555;SDS011;36508;52.512;13.450;2023-02-15T05:18:14;51.53;;;35.47;;
50555;SDS011;36508;52.512;13.450;2023-02-15T05:20:40;49.07;;;33.97;;
50555;SDS011;36508;52.512;13.450;2023-02-15T05:23:06;57.30;;;34.90;;
50555;SDS011;36508;52.512;13.450;2023-02-15T05:25:32;52.67;;;38.00;;
50555;SDS011;36508;52.512;13.450;2023-02-15T05:28:16;52.57;;;35.87;;
50555;SDS011;36508;52.512;13.450;2023-02-15T05:30:45;54.37;;;34.60;;
50555;SDS011;36508;52.512;13.450;2023-02-15T05:33:32;54.03;;;32.97;;
50555;SDS011;36508;52.512;13.450;2023-02-15T05:35:58;46.53;;;33.03;;
50555;SDS011;36508;52.512;13.450;2023-02-15T05:38:24;48.77;;;31.43;;
50555;SDS011;36508;52.512;13.450;2023-02-15T05:40:51;54.93;;;35.10;;
50555;SDS011;36508;52.512;13.450;2023-02-15T05:43:17;52.30;;;34.07;;
50555;SDS011;36508;52.512;13.450;2023-02-15T05:45:46;54.13;;;34.70;;
50555;SDS011;36508;52.512;13.450;2023-02-15T05:48:14;57.27;;;33.67;;
50555;SDS011;36508;52.512;13.450;2023-02-15T05:50:40;55.80;;;33.67;;
50555;SDS011;36508;52.512;13.450;2023-02-15T05:53:06;52.27;;;36.37;;
50555;SDS011;36508;52.512;13.450;2023-02-15T05:55:32;49.80;;;32.10;;
50555;SDS011;36508;52.512;13.450;2023-02-15T05:58:01;54.70;;;34.60;;
50555;SDS011;36508;52.512;13.450;2023-02-15T06:00:27;53.17;;;36.63;;
50555;SDS011;36508;52.512;13.450;2023-02-15T06:02:53;59.90;;;34.53;;
50555;SDS011;36508;52.512;13.450;2023-02-15T06:05:19;65.40;;;35.83;;
50555;SDS011;36508;52.512;13.450;2023-02-15T06:07:45;55.00;;;33.20;;
50555;SDS011;36508;52.512;13.450;2023-02-15T06:10:11;53.33;;;35.30;;
50555;SDS011;36508;52.512;13.450;2023-02-15T06:12:37;56.73;;;36.77;;
50555;SDS011;36508;52.512;13.450;2023-02-15T06:15:05;61.00;;;35.47;;
50555;SDS011;36508;52.512;13.450;2023-02-15T06:17:31;55.33;;;34.60;;
50555;SDS011;36508;52.512;13.450;2023-02-15T06:19:57;49.33;;;30.83;;
50555;SDS011;36508;52.512;13.450;2023-02-15T06:22:23;60.40;;;39.50;;
50555;SDS011;36508;52.512;13.450;2023-02-15T06:24:49;58.03;;;33.50;;
50555;SDS011;36508;52.512;13.450;2023-02-15T06:27:15;57.70;;;34.67;;
50555;SDS011;36508;52.512;13.450;2023-02-15T06:29:40;53.53;;;35.90;;
50555;SDS011;36508;52.512;13.450;2023-02-15T06:32:06;55.07;;;33.83;;
50555;SDS011;36508;52.512;13.450;2023-02-15T06:34:32;58.63;;;33.63;;
50555;SDS011;36508;52.512;13.450;2023-02-15T06:36:58;65.43;;;37.27;;
50555;SDS011;36508;52.512;13.450;2023-02-15T06:39:24;65.00;;;37.20;;
50555;SDS011;36508;52.512;13.450;2023-02-15T06:41:53;62.23;;;37.00;;
50555;SDS011;36508;52.512;13.450;2023-02-15T06:44:18;59.63;;;35.23;;
50555;SDS011;36508;52.512;13.450;2023-02-15T06:46:44;69.70;;;36.80;;
50555;SDS011;36508;52.512;13.450;2023-02-15T06:49:10;60.00;;;36.80;;
50555;SDS011;36508;52.512;13.450;2023-02-15T06:51:36;59.07;;;36.73;;
50555;SDS011;36508;52.512;13.450;2023-02-15T06:54:01;56.63;;;35.73;;
50555;SDS011;36508;52.512;13.450;2023-02-15T06:56:30;57.17;;;35.03;;
50555;SDS011;36508;52.512;13.450;2023-02-15T06:58:56;67.40;;;37.90;;
50555;SDS011;36508;52.512;13.450;2023-02-15T07:01:22;61.07;;;37.20;;
50555;SDS011;36508;52.512;13.450;2023-02-15T07:03:48;59.43;;;38.37;;
50555;SDS011;36508;52.512;13.450;2023-02-15T07:06:14;70.23;;;40.17;;
50555;SDS011;36508;52.512;13.450;2023-02-15T07:08:39;68.37;;;38.80;;
50555;SDS011;36508;52.512;13.450;2023-02-15T07:11:05;72.43;;;41.30;;
50555;SDS011;36508;52.512;13.450;2023-02-15T07:13:50;65.03;;;36.97;;
50555;SDS011;36508;52.512;13.450;2023-02-15T07:16:17;67.73;;;39.10;;
50555;SDS011;36508;52.512;13.450;2023-02-15T07:18:43;73.07;;;37.17;;
50555;SDS011;36508;52.512;13.450;2023-02-15T07:21:09;71.00;;;38.30;;
50555;SDS011;36508;52.512;13.450;2023-02-15T07:23:36;62.23;;;35.20;;
50555;SDS011;36508;52.512;13.450;2023-02-15T07:26:03;64.77;;;37.93;;
50555;SDS011;36508;52.512;13.450;2023-02-15T07:28:29;59.13;;;40.50;;
50555;SDS011;36508;52.512;13.450;2023-02-15T07:31:02;59.10;;;35.67;;
50555;SDS011;36508;52.512;13.450;2023-02-15T07:33:32;93.10;;;40.07;;
50555;SDS011;36508;52.512;13.450;2023-02-15T07:35:59;58.90;;;35.93;;
50555;SDS011;36508;52.512;13.450;2023-02-15T07:38:29;71.43;;;41.70;;
50555;SDS011;36508;52.512;13.450;2023-02-15T07:40:58;58.90;;;36.30;;
50555;SDS011;36508;52.512;13.450;2023-02-15T07:43:28;62.97;;;38.50;;
50555;SDS011;36508;52.512;13.450;2023-02-15T07:45:58;66.27;;;36.33;;
50555;SDS011;36508;52.512;13.450;2023-02-15T07:48:28;66.60;;;38.80;;
50555;SDS011;36508;52.512;13.450;2023-02-15T07:50:53;56.43;;;33.80;;
50555;SDS011;36508;52.512;13.450;2023-02-15T07:53:23;62.27;;;34.60;;
50555;SDS011;36508;52.512;13.450;2023-02-15T07:55:49;53.80;;;33.43;;
50555;SDS011;36508;52.512;13.450;2023-02-15T07:58:15;65.07;;;37.73;;
50555;SDS011;36508;52.512;13.450;2023-02-15T08:00:43;52.50;;;36.03;;
50555;SDS011;36508;52.512;13.450;2023-02-15T08:03:30;60.30;;;34.93;;
50555;SDS011;36508;52.512;13.450;2023-02-15T08:05:56;57.00;;;33.53;;
50555;SDS011;36508;52.512;13.450;2023-02-15T08:08:24;64.00;;;37.67;;
50555;SDS011;36508;52.512;13.450;2023-02-15T08:11:04;63.93;;;35.77;;
50555;SDS011;36508;52.512;13.450;2023-02-15T08:13:57;56.53;;;34.77;;
50555;SDS011;36508;52.512;13.450;2023-02-15T08:19:23;62.50;;;36.37;;
50555;SDS011;36508;52.512;13.450;2023-02-15T08:21:52;58.43;;;35.43;;
50555;SDS011;36508;52.512;13.450;2023-02-15T08:24:22;56.10;;;34.00;;
50555;SDS011;36508;52.512;13.450;2023-02-15T08:26:48;60.20;;;34.17;;
50555;SDS011;36508;52.512;13.450;2023-02-15T08:29:16;48.37;;;30.67;;
50555;SDS011;36508;52.512;13.450;2023-02-15T08:31:44;69.40;;;33.47;;
50555;SDS011;36508;52.512;13.450;2023-02-15T08:34:11;59.33;;;37.93;;
50555;SDS011;36508;52.512;13.450;2023-02-15T08:36:40;65.63;;;41.40;;
50555;SDS011;36508;52.512;13.450;2023-02-15T08:39:07;59.10;;;38.13;;
50555;SDS011;36508;52.512;13.450;2023-02-15T08:41:35;59.13;;;36.03;;
50555;SDS011;36508;52.512;13.450;2023-02-15T08:44:03;57.30;;;37.63;;
50555;SDS011;36508;52.512;13.450;2023-02-15T08:46:31;63.17;;;38.77;;
50555;SDS011;36508;52.512;13.450;2023-02-15T08:48:59;60.93;;;36.43;;
50555;SDS011;36508;52.512;13.450;2023-02-15T08:51:30;59.17;;;38.23;;
50555;SDS011;36508;52.512;13.450;2023-02-15T08:53:58;68.27;;;40.10;;
50555;SDS011;36508;52.512;13.450;2023-02-15T08:56:28;59.90;;;36.33;;
50555;SDS011;36508;52.512;13.450;2023-02-15T08:58:56;59.60;;;34.70;;
50555;SDS011;36508;52.512;13.450;2023-02-15T09:01:26;55.73;;;38.43;;
50555;SDS011;36508;52.512;13.450;2023-02-15T09:03:57;63.40;;;37.90;;
50555;SDS011;36508;52.512;13.450;2023-02-15T09:06:25;57.47;;;32.80;;
50555;SDS011;36508;52.512;13.450;2023-02-15T09:08:51;54.33;;;37.07;;
50555;SDS011;36508;52.512;13.450;2023-02-15T09:11:20;56.20;;;35.83;;
50555;SDS011;36508;52.512;13.450;2023-02-15T09:13:52;57.27;;;35.03;;
50555;SDS011;36508;52.512;13.450;2023-02-15T09:16:22;48.83;;;32.63;;
50555;SDS011;36508;52.512;13.450;2023-02-15T09:18:50;57.60;;;33.80;;
50555;SDS011;36508;52.512;13.450;2023-02-15T09:21:17;51.93;;;34.70;;
50555;SDS011;36508;52.512;13.450;2023-02-15T09:23:45;45.93;;;31.90;;
50555;SDS011;36508;52.512;13.450;2023-02-15T09:26:13;50.37;;;33.70;;
50555;SDS011;36508;52.512;13.450;2023-02-15T09:28:41;50.47;;;35.90;;
50555;SDS011;36508;52.512;13.450;2023-02-15T09:31:12;43.93;;;32.73;;
50555;SDS011;36508;52.512;13.450;2023-02-15T09:33:40;51.07;;;34.57;;
50555;SDS011;36508;52.512;13.450;2023-02-15T09:36:14;54.27;;;35.37;;
50555;SDS011;36508;52.512;13.450;2023-02-15T09:38:56;57.20;;;35.60;;
50555;SDS011;36508;52.512;13.450;2023-02-15T09:44:37;44.57;;;30.80;;
50555;SDS011;36508;52.512;13.450;2023-02-15T09:50:33;55.27;;;34.20;;
50555;SDS011;36508;52.512;13.450;2023-02-15T09:56:06;59.67;;;36.30;;
50555;SDS011;36508;52.512;13.450;2023-02-15T10:03:57;42.47;;;30.77;;
50555;SDS011;36508;52.512;13.450;2023-02-15T10:26:36;45.10;;;31.47;;
50555;SDS011;36508;52.512;13.450;2023-02-15T10:34:39;41.90;;;31.00;;
50555;SDS011;36508;52.512;13.450;2023-02-15T10:39:51;34.83;;;29.20;;
50555;SDS011;36508;52.512;13.450;2023-02-15T10:53:25;39.77;;;29.60;;
50555;SDS011;36508;52.512;13.450;2023-02-15T10:56:03;37.40;;;29.90;;
50555;SDS011;36508;52.512;13.450;2023-02-15T11:01:20;37.70;;;30.40;;
50555;SDS011;36508;52.512;13.450;2023-02-15T11:04:07;36.77;;;27.00;;
50555;SDS011;36508;52.512;13.450;2023-02-15T11:06:38;38.13;;;26.63;;
50555;SDS011;36508;52.512;13.450;2023-02-15T11:09:12;31.50;;;27.50;;
50555;SDS011;36508;52.512;13.450;2023-02-15T11:11:44;33.50;;;26.23;;
50555;SDS011;36508;52.512;13.450;2023-02-15T11:14:14;27.90;;;25.00;;
50555;SDS011;36508;52.512;13.450;2023-02-15T11:16:46;33.43;;;25.27;;
50555;SDS011;36508;52.512;13.450;2023-02-15T11:19:19;33.20;;;27.50;;
50555;SDS011;36508;52.512;13.450;2023-02-15T11:21:54;33.23;;;28.50;;
50555;SDS011;36508;52.512;13.450;2023-02-15T11:24:26;29.40;;;26.10;;
50555;SDS011;36508;52.512;13.450;2023-02-15T11:26:56;29.90;;;26.60;;
50555;SDS011;36508;52.512;13.450;2023-02-15T11:29:37;28.47;;;24.90;;
50555;SDS011;36508;52.512;13.450;2023-02-15T11:34:58;28.80;;;25.90;;
50555;SDS011;36508;52.512;13.450;2023-02-15T11:37:46;31.37;;;28.07;;
50555;SDS011;36508;52.512;13.450;2023-02-15T11:43:03;34.20;;;28.50;;
50555;SDS011;36508;52.512;13.450;2023-02-15T11:45:33;28.37;;;25.20;;
50555;SDS011;36508;52.512;13.450;2023-02-15T11:48:00;26.63;;;23.80;;
50555;SDS011;36508;52.512;13.450;2023-02-15T11:50:33;28.77;;;25.90;;
50555;SDS011;36508;52.512;13.450;2023-02-15T11:53:00;28.23;;;25.43;;
50555;SDS011;36508;52.512;13.450;2023-02-15T11:55:27;24.03;;;21.63;;
50555;SDS011;36508;52.512;13.450;2023-02-15T11:58:29;26.47;;;23.63;;
50555;SDS011;36508;52.512;13.450;2023-02-15T12:00:46;24.93;;;22.57;;
50555;SDS011;36508;52.512;13.450;2023-02-15T12:05:47;29.73;;;26.83;;
50555;SDS011;36508;52.512;13.450;2023-02-15T12:08:16;25.80;;;23.30;;
50555;SDS011;36508;52.512;13.450;2023-02-15T12:10:46;29.30;;;26.13;;
50555;SDS011;36508;52.512;13.450;2023-02-15T12:13:18;25.40;;;22.90;;
50555;SDS011;36508;52.512;13.450;2023-02-15T12:15:48;23.97;;;21.90;;
50555;SDS011;36508;52.512;13.450;2023-02-15T12:18:19;26.13;;;23.63;;
50555;SDS011;36508;52.512;13.450;2023-02-15T12:20:51;25.47;;;23.07;;
50555;SDS011;36508;52.512;13.450;2023-02-15T12:23:17;24.87;;;22.47;;
50555;SDS011;36508;52.512;13.450;2023-02-15T12:25:53;23.37;;;21.07;;
50555;SDS011;36508;52.512;13.450;2023-02-15T12:30:55;23.87;;;21.43;;
50555;SDS011;36508;52.512;13.450;2023-02-15T12:33:25;29.77;;;26.67;;
50555;SDS011;36508;52.512;13.450;2023-02-15T12:35:59;25.60;;;22.57;;
50555;SDS011;36508;52.512;13.450;2023-02-15T12:38:26;24.33;;;21.97;;
50555;SDS011;36508;52.512;13.450;2023-02-15T12:40:57;25.43;;;22.73;;
50555;SDS011;36508;52.512;13.450;2023-02-15T12:43:32;26.10;;;23.43;;
50555;SDS011;36508;52.512;13.450;2023-02-15T12:48:47;25.93;;;21.80;;
50555;SDS011;36508;52.512;13.450;2023-02-15T12:51:31;28.53;;;24.80;;
50555;SDS011;36508;52.512;13.450;2023-02-15T12:57:14;30.57;;;22.97;;
50555;SDS011;36508;52.512;13.450;2023-02-15T13:00:00;30.37;;;24.17;;
50555;SDS011;36508;52.512;13.450;2023-02-15T13:03:00;28.43;;;24.37;;
50555;SDS011;36508;52.512;13.450;2023-02-15T13:05:39;28.20;;;22.37;;
50555;SDS011;36508;52.512;13.450;2023-02-15T13:08:19;32.50;;;25.93;;
50555;SDS011;36508;52.512;13.450;2023-02-15T13:11:22;25.67;;;22.97;;
50555;SDS011;36508;52.512;13.450;2023-02-15T13:14:00;27.80;;;22.47;;
50555;SDS011;36508;52.512;13.450;2023-02-15T13:18:57;27.47;;;23.93;;
50555;SDS011;36508;52.512;13.450;2023-02-15T13:21:29;30.40;;;22.10;;
50555;SDS011;36508;52.512;13.450;2023-02-15T13:24:01;25.43;;;21.07;;
50555;SDS011;36508;52.512;13.450;2023-02-15T13:26:42;25.77;;;22.77;;
50555;SDS011;36508;52.512;13.450;2023-02-15T13:29:22;23.90;;;21.53;;
50555;SDS011;36508;52.512;13.450;2023-02-15T13:31:50;26.00;;;23.30;;
50555;SDS011;36508;52.512;13.450;2023-02-15T13:34:31;24.13;;;20.50;;
50555;SDS011;36508;52.512;13.450;2023-02-15T13:37:03;21.20;;;19.10;;
50555;SDS011;36508;52.512;13.450;2023-02-15T13:40:01;33.33;;;23.87;;
50555;SDS011;36508;52.512;13.450;2023-02-15T13:42:45;27.93;;;24.20;;
50555;SDS011;36508;52.512;13.450;2023-02-15T13:45:26;23.40;;;19.97;;
50555;SDS011;36508;52.512;13.450;2023-02-15T13:53:19;22.23;;;19.83;;
50555;SDS011;36508;52.512;13.450;2023-02-15T14:04:43;21.70;;;19.63;;
50555;SDS011;36508;52.512;13.450;2023-02-15T14:23:30;28.03;;;20.80;;
50555;SDS011;36508;52.512;13.450;2023-02-15T14:31:57;21.50;;;19.20;;
50555;SDS011;36508;52.512;13.450;2023-02-15T14:34:30;26.13;;;23.13;;
50555;SDS011;36508;52.512;13.450;2023-02-15T14:37:09;30.00;;;23.77;;
50555;SDS011;36508;52.512;13.450;2023-02-15T14:42:45;26.80;;;23.57;;
50555;SDS011;36508;52.512;13.450;2023-02-15T14:45:30;27.90;;;23.20;;
50555;SDS011;36508;52.512;13.450;2023-02-15T14:48:21;27.13;;;24.37;;
50555;SDS011;36508;52.512;13.450;2023-02-15T14:50:54;31.07;;;26.57;;
50555;SDS011;36508;52.512;13.450;2023-02-15T14:58:54;25.50;;;21.37;;
50555;SDS011;36508;52.512;13.450;2023-02-15T15:01:32;24.77;;;20.50;;
50555;SDS011;36508;52.512;13.450;2023-02-15T15:04:23;32.37;;;25.83;;
50555;SDS011;36508;52.512;13.450;2023-02-15T15:09:28;33.50;;;23.53;;
50555;SDS011;36508;52.512;13.450;2023-02-15T15:12:36;28.73;;;25.33;;
50555;SDS011;36508;52.512;13.450;2023-02-15T15:14:47;25.87;;;22.80;;
50555;SDS011;36508;52.512;13.450;2023-02-15T15:20:00;31.00;;;23.80;;
50555;SDS011;36508;52.512;13.450;2023-02-15T15:22:27;25.93;;;21.30;;
50555;SDS011;36508;52.512;13.450;2023-02-15T15:25:56;32.40;;;27.87;;
50555;SDS011;36508;52.512;13.450;2023-02-15T15:28:02;21.47;;;18.90;;
50555;SDS011;36508;52.512;13.450;2023-02-15T15:38:22;22.73;;;19.67;;
50555;SDS011;36508;52.512;13.450;2023-02-15T15:49:15;25.43;;;21.80;;
50555;SDS011;36508;52.512;13.450;2023-02-15T15:51:44;29.20;;;22.30;;
50555;SDS011;36508;52.512;13.450;2023-02-15T15:54:18;22.83;;;19.90;;
50555;SDS011;36508;52.512;13.450;2023-02-15T15:56:57;29.40;;;20.70;;
50555;SDS011;36508;52.512;13.450;2023-02-15T15:59:33;24.20;;;20.50;;
50555;SDS011;36508;52.512;13.450;2023-02-15T16:02:10;25.13;;;21.70;;
50555;SDS011;36508;52.512;13.450;2023-02-15T16:04:42;36.77;;;26.20;;
50555;SDS011;36508;52.512;13.450;2023-02-15T16:09:53;44.97;;;31.10;;
50555;SDS011;36508;52.512;13.450;2023-02-15T16:12:19;40.70;;;29.50;;
50555;SDS011;36508;52.512;13.450;2023-02-15T16:14:45;38.53;;;27.83;;
50555;SDS011;36508;52.512;13.450;2023-02-15T16:17:26;30.57;;;27.47;;
50555;SDS011;36508;52.512;13.450;2023-02-15T16:20:06;46.50;;;27.97;;
50555;SDS011;36508;52.512;13.450;2023-02-15T16:22:40;43.80;;;31.90;;
50555;SDS011;36508;52.512;13.450;2023-02-15T16:27:50;35.73;;;29.73;;
50555;SDS011;36508;52.512;13.450;2023-02-15T16:32:48;30.90;;;24.93;;
50555;SDS011;36508;52.512;13.450;2023-02-15T16:35:18;33.43;;;28.50;;
50555;SDS011;36508;52.512;13.450;2023-02-15T16:37:46;38.70;;;28.47;;
50555;SDS011;36508;52.512;13.450;2023-02-15T16:42:53;29.57;;;25.90;;
50555;SDS011;36508;52.512;13.450;2023-02-15T16:45:26;43.33;;;34.53;;
50555;SDS011;36508;52.512;13.450;2023-02-15T16:47:55;38.30;;;27.13;;
50555;SDS011;36508;52.512;13.450;2023-02-15T16:50:35;36.67;;;29.70;;
50555;SDS011;36508;52.512;13.450;2023-02-15T16:53:03;33.23;;;26.87;;
50555;SDS011;36508;52.512;13.450;2023-02-15T16:55:35;42.37;;;30.10;;
50555;SDS011;36508;52.512;13.450;2023-02-15T16:58:05;35.83;;;25.40;;
50555;SDS011;36508;52.512;13.450;2023-02-15T17:00:36;24.03;;;18.80;;
50555;SDS011;36508;52.512;13.450;2023-02-15T17:03:12;27.93;;;20.90;;
50555;SDS011;36508;52.512;13.450;2023-02-15T17:05:49;28.27;;;20.80;;
50555;SDS011;36508;52.512;13.450;2023-02-15T17:11:10;32.87;;;22.33;;
50555;SDS011;36508;52.512;13.450;2023-02-15T17:14:10;21.57;;;19.10;;
50555;SDS011;36508;52.512;13.450;2023-02-15T17:16:49;29.53;;;20.63;;
50555;SDS011;36508;52.512;13.450;2023-02-15T17:19:48;32.20;;;25.10;;
50555;SDS011;36508;52.512;13.450;2023-02-15T17:22:20;28.83;;;25.30;;
50555;SDS011;36508;52.512;13.450;2023-02-15T17:24:48;45.63;;;25.87;;
50555;SDS011;36508;52.512;13.450;2023-02-15T17:27:24;31.50;;;24.13;;
50555;SDS011;36508;52.512;13.450;2023-02-15T17:29:56;29.13;;;22.37;;
50555;SDS011;36508;52.512;13.450;2023-02-15T17:32:29;35.23;;;26.77;;
50555;SDS011;36508;52.512;13.450;2023-02-15T17:35:08;36.92;;;28.38;;
50555;SDS011;36508;52.512;13.450;2023-02-15T17:37:47;38.23;;;28.77;;
50555;SDS011;36508;52.512;13.450;2023-02-15T17:42:53;125.40;;;100.87;;
50555;SDS011;36508;52.512;13.450;2023-02-15T17:45:19;117.27;;;89.80;;